Time;durP1;ratioP1;P1;durP2;ratioP2;P2;SDS_P1;SDS_P2;PMS_P1;PMS_P2;Temp;Humidity;BMP_temperature;BMP_pressure;BME280_temperature;BME280_humidity;BME280_pressure;Samples;Min_cycle;Max_cycle;Signal;HPM_P1;HPM_P2
2023/03/16 08:43:31;;;;;;;32.17;16.82;;;12.60;89.50;;;;;;1958950;73;25785;-47
2023/03/16 08:46:00;;;;;;;18.73;12.23;;;12.80;89.80;;;;;;1918307;75;21050;-47
2023/03/16 08:48:36;;;;;;;30.72;16.67;;;13.00;89.40;;;;;;1917509;74;21059;-49
2023/03/16 08:51:04;;;;;;;29.40;19.62;;;13.20;90.10;;;;;;1916770;74;21082;-47
2023/03/16 08:53:34;;;;;;;35.58;20.40;;;13.50;89.90;;;;;;1918322;75;21020;-51
2023/03/16 08:56:08;;;;;;;23.85;16.45;;;13.60;88.20;;;;;;1918451;75;21116;-48
2023/03/16 08:58:38;;;;;;;34.10;20.32;;;13.70;88.20;;;;;;1916698;74;21050;-46
2023/03/16 09:01:08;;;;;;;36.50;19.73;;;13.80;88.60;;;;;;1918323;74;21002;-47
2023/03/16 09:03:36;;;;;;;35.52;18.82;;;14.00;87.70;;;;;;1918305;74;21019;-46
2023/03/16 09:06:14;;;;;;;35.75;20.35;;;14.00;87.60;;;;;;1918345;75;21441;-47
2023/03/16 09:08:39;;;;;;;35.83;21.65;;;14.00;87.30;;;;;;1916229;74;21041;-45
2023/03/16 09:11:17;;;;;;;38.65;22.40;;;14.00;87.20;;;;;;1918321;75;21174;-45
2023/03/16 09:13:47;;;;;;;39.38;21.20;;;13.90;87.20;;;;;;1918386;75;21010;-45
2023/03/16 09:16:16;;;;;;;35.45;19.95;;;14.00;87.20;;;;;;1918342;74;21438;-45
2023/03/16 22:16:57;;;;;;;25.70;13.50;;;11.50;89.80;;;;;;1959057;73;26235;-59
2023/03/16 22:19:29;;;;;;;26.42;14.55;;;11.60;90.20;;;;;;1918490;75;21175;-59
2023/03/16 22:21:58;;;;;;;23.90;15.13;;;11.70;90.30;;;;;;1918408;75;21622;-59
2023/03/16 22:24:31;;;;;;;27.32;16.57;;;11.70;90.40;;;;;;1918472;75;21003;-59
2023/03/16 22:27:00;;;;;;;23.73;13.98;;;11.70;90.40;;;;;;1918439;75;21003;-59
2023/03/16 22:29:32;;;;;;;24.90;15.65;;;11.70;90.50;;;;;;1918412;75;21098;-59
2023/03/16 22:32:09;;;;;;;25.95;15.32;;;11.80;90.60;;;;;;1918454;74;20983;-60
2023/03/16 22:34:41;;;;;;;24.63;15.72;;;11.80;90.70;;;;;;1918406;74;21117;-59
2023/03/16 22:37:13;;;;;;;27.93;15.20;;;11.80;90.80;;;;;;1918424;74;21172;-59
2023/03/16 22:39:42;;;;;;;24.98;14.65;;;11.80;90.80;;;;;;1918469;75;21067;-59
2023/03/16 22:42:26;;;;;;;26.87;14.75;;;11.80;90.80;;;;;;1918217;75;21050;-59
2023/03/16 22:44:56;;;;;;;28.80;15.85;;;11.80;90.90;;;;;;1918343;74;21098;-58
2023/03/16 22:47:35;;;;;;;21.90;14.20;;;11.80;90.90;;;;;;1918563;75;21070;-58
2023/03/16 22:50:05;;;;;;;26.82;15.50;;;11.80;90.90;;;;;;1918367;74;21154;-59
2023/03/16 22:52:36;;;;;;;27.17;15.43;;;11.80;91.00;;;;;;1918332;75;21143;-58
2023/03/16 22:55:07;;;;;;;24.65;14.90;;;11.80;90.90;;;;;;1918492;74;21011;-58
2023/03/16 22:57:36;;;;;;;25.40;16.23;;;11.80;90.90;;;;;;1918374;75;21088;-59
2023/03/16 23:00:09;;;;;;;29.60;18.12;;;11.80;91.00;;;;;;1918446;75;21043;-58
2023/03/16 23:02:37;;;;;;;23.15;14.60;;;11.80;90.90;;;;;;1918036;74;21442;-58
2023/03/16 23:05:09;;;;;;;26.55;15.55;;;11.70;90.90;;;;;;1918277;75;21067;-58
2023/03/16 23:07:38;;;;;;;34.58;17.55;;;11.70;91.00;;;;;;1909500;75;21096;-59
2023/03/16 23:10:09;;;;;;;36.17;18.57;;;11.60;91.00;;;;;;1918298;75;21023;-58
2023/03/16 23:12:38;;;;;;;32.03;17.32;;;11.70;91.00;;;;;;1918370;75;21441;-58
2023/03/16 23:15:10;;;;;;;34.08;16.23;;;11.60;91.20;;;;;;1918182;74;21144;-58
2023/03/16 23:17:39;;;;;;;25.32;15.18;;;11.60;91.10;;;;;;1905051;74;21311;-58
2023/03/16 23:20:14;;;;;;;30.48;15.72;;;11.60;91.20;;;;;;1905947;75;21051;-58
2023/03/16 23:22:43;;;;;;;24.67;15.68;;;11.60;91.20;;;;;;1899499;74;21004;-58
2023/03/16 23:25:12;;;;;;;31.62;17.65;;;11.60;91.30;;;;;;1905902;75;21047;-58
2023/03/16 23:27:41;;;;;;;27.42;16.97;;;11.60;91.30;;;;;;1905577;75;21071;-58
2023/03/16 23:30:22;;;;;;;31.33;17.80;;;11.60;91.20;;;;;;1905401;75;21247;-58
2023/03/16 23:32:54;;;;;;;28.92;15.85;;;11.60;91.20;;;;;;1905340;75;21204;-59
2023/03/16 23:35:29;;;;;;;27.42;16.80;;;11.50;91.40;;;;;;1905298;74;21118;-58
2023/03/16 23:37:58;;;;;;;27.02;16.05;;;11.50;91.20;;;;;;1905331;75;21101;-58
2023/03/16 23:40:29;;;;;;;26.90;15.85;;;11.40;91.20;;;;;;1905470;75;21510;-58
2023/03/16 23:43:00;;;;;;;30.55;15.40;;;11.40;91.30;;;;;;1905324;75;20988;-58
2023/03/16 23:45:41;;;;;;;23.32;13.68;;;11.40;91.30;;;;;;1905389;75;21031;-58
2023/03/16 23:48:18;;;;;;;23.35;14.53;;;11.40;91.40;;;;;;1905250;74;21091;-58
2023/03/16 23:50:50;;;;;;;29.45;17.15;;;11.40;91.40;;;;;;1905388;74;21272;-58
2023/03/16 23:53:20;;;;;;;31.93;18.85;;;11.40;91.50;;;;;;1905430;75;21701;-58
2023/03/16 23:55:49;;;;;;;33.33;17.20;;;11.40;91.40;;;;;;1905436;75;21079;-58
2023/03/16 23:58:18;;;;;;;33.13;18.42;;;11.40;91.30;;;;;;1905398;75;21466;-58
